Arpin, Wisconsin
Current Conditions -  °F | °C
As of 5:54 PM on Thursday 27 Nov 2014 (Local Time) from KMFI Reporting Station
Clear Clear  
Wind Chill:   Ceiling: Unl
Heat Index:   Visibility: 10mi
Dew Point: -5°   Wind: 3mph
Humidity: 69%   Direction: 330°NNW
Pressure: 30.34"   Gusts: NA
Location:  44.54°N, 90.04°W
Report Text: KMFI 272354Z AUTO 33003KT 10SM CLR M16/M21 A3034 RMK AO2 SLP305 T11611206 11122 21172 58004
Loading
Personal Weather Stations






























Interactive Weather Map New forecast layout! Learn more

10-Day Weather Forecast

Advertisements
Track Severe Weather on mobile